Time;durP1;ratioP1;P1;durP2;ratioP2;P2;SDS_P1;SDS_P2;PMS_P1;PMS_P2;Temp;Humidity;BMP_temperature;BMP_pressure;BME280_temperature;BME280_humidity;BME280_pressure;Samples;Min_cycle;Max_cycle;Signal;HPM_P1;HPM_P2
2024/01/21 00:00:50;;;;;;;15.07;6.28;;;4.70;58.90;;;;;;6244140;28;20060;-71
2024/01/21 00:03:52;;;;;;;11.45;6.15;;;4.70;59.00;;;;;;6241702;28;20025;-72
2024/01/21 00:06:53;;;;;;;13.45;7.55;;;4.60;59.10;;;;;;6264533;28;20509;-72
2024/01/21 00:09:54;;;;;;;13.88;6.15;;;4.60;59.30;;;;;;6246313;28;20033;-71
2024/01/21 00:12:54;;;;;;;18.80;7.13;;;4.50;59.30;;;;;;6243575;28;20036;-72
2024/01/21 00:15:55;;;;;;;13.82;6.32;;;4.50;59.40;;;;;;6247565;28;20028;-71
2024/01/21 00:18:56;;;;;;;14.05;6.22;;;4.50;59.40;;;;;;6255946;28;20044;-72
2024/01/21 00:21:57;;;;;;;12.40;5.90;;;4.50;59.50;;;;;;6262037;28;20198;-72
2024/01/21 00:24:58;;;;;;;11.75;6.88;;;4.60;59.50;;;;;;6234003;28;20439;-70
2024/01/21 00:27:58;;;;;;;16.25;6.88;;;4.60;59.50;;;;;;6244774;28;20124;-72
2024/01/21 00:31:02;;;;;;;18.67;7.10;;;4.60;59.40;;;;;;6260815;28;20343;-72
2024/01/21 00:34:03;;;;;;;9.10;5.95;;;4.60;59.50;;;;;;6226596;28;20277;-72
2024/01/21 00:37:05;;;;;;;12.70;6.03;;;4.60;59.50;;;;;;6244078;28;20026;-71
2024/01/21 00:40:10;;;;;;;16.65;7.35;;;4.50;60.20;;;;;;6243421;28;20557;-72
2024/01/21 00:43:11;;;;;;;13.77;7.07;;;4.60;59.60;;;;;;6241244;28;20070;-71
2024/01/21 00:46:12;;;;;;;14.32;8.27;;;4.60;59.80;;;;;;6276309;28;20052;-72
2024/01/21 00:49:13;;;;;;;16.77;8.15;;;4.60;59.70;;;;;;6240038;28;20733;-71
2024/01/21 00:52:14;;;;;;;9.07;5.32;;;4.60;59.60;;;;;;6240958;28;20523;-71
2024/01/21 00:55:15;;;;;;;12.63;6.75;;;4.60;59.60;;;;;;6245628;28;20131;-71
2024/01/21 00:58:16;;;;;;;13.05;6.72;;;4.60;59.60;;;;;;6244986;28;20158;-72
2024/01/21 01:01:16;;;;;;;13.52;6.05;;;4.60;59.70;;;;;;6251408;28;20087;-72
2024/01/21 01:04:18;;;;;;;12.75;6.97;;;4.50;59.70;;;;;;6247358;28;20071;-72
2024/01/21 01:07:19;;;;;;;12.15;6.22;;;4.50;59.80;;;;;;6246987;28;20013;-72
2024/01/21 01:10:20;;;;;;;10.55;5.63;;;4.60;60.00;;;;;;6256978;28;20446;-72
2024/01/21 01:13:21;;;;;;;15.95;5.05;;;4.50;60.00;;;;;;6242690;28;20056;-72
2024/01/21 01:16:22;;;;;;;12.77;4.63;;;4.40;59.90;;;;;;6242001;28;20119;-72
2024/01/21 01:19:23;;;;;;;12.70;6.07;;;4.50;60.00;;;;;;6241284;28;20117;-71
2024/01/21 01:22:24;;;;;;;10.05;4.07;;;4.40;60.00;;;;;;6258294;28;20051;-72
2024/01/21 01:25:26;;;;;;;11.55;5.15;;;4.50;60.00;;;;;;6240526;28;20021;-72
2024/01/21 01:28:27;;;;;;;16.50;7.70;;;4.50;59.90;;;;;;6240822;28;20132;-72
2024/01/21 01:31:28;;;;;;;11.27;5.97;;;4.50;60.00;;;;;;6240042;28;20480;-71
2024/01/21 01:34:29;;;;;;;13.73;7.25;;;4.40;59.90;;;;;;6245126;28;20078;-72
2024/01/21 01:37:30;;;;;;;9.27;6.05;;;4.40;60.00;;;;;;6255898;28;20021;-72
2024/01/21 01:40:31;;;;;;;13.27;6.40;;;4.40;60.30;;;;;;6239058;28;20044;-71
2024/01/21 01:43:31;;;;;;;9.60;5.50;;;4.30;60.40;;;;;;6265896;28;20035;-71
2024/01/21 01:46:32;;;;;;;8.88;5.25;;;4.30;60.60;;;;;;6231278;28;20393;-70
2024/01/21 01:49:33;;;;;;;10.07;5.30;;;4.30;60.70;;;;;;6242819;28;20112;-72
2024/01/21 01:52:34;;;;;;;8.98;4.88;;;4.30;60.70;;;;;;6242882;28;20222;-71
2024/01/21 01:55:36;;;;;;;19.95;7.70;;;4.30;60.70;;;;;;6232247;28;20036;-73
2024/01/21 01:58:38;;;;;;;9.68;5.05;;;4.30;60.80;;;;;;6242362;28;20031;-71
2024/01/21 02:01:39;;;;;;;8.98;5.82;;;4.30;60.90;;;;;;6241440;28;20028;-70
2024/01/21 02:04:39;;;;;;;10.70;4.85;;;4.30;60.80;;;;;;6237459;28;20018;-72
2024/01/21 02:07:40;;;;;;;15.63;6.68;;;4.30;60.90;;;;;;6245168;28;20426;-71
2024/01/21 02:10:41;;;;;;;15.70;6.85;;;4.30;60.90;;;;;;6232035;28;20039;-72
2024/01/21 02:13:44;;;;;;;13.20;6.63;;;4.30;61.00;;;;;;6244788;28;20522;-72
2024/01/21 02:16:44;;;;;;;14.43;6.60;;;4.20;61.10;;;;;;6248697;28;20622;-72
2024/01/21 02:19:45;;;;;;;8.48;4.95;;;4.20;61.20;;;;;;6242962;28;20029;-71
2024/01/21 02:22:47;;;;;;;12.57;6.30;;;4.20;61.30;;;;;;6243050;28;20024;-71
2024/01/21 02:25:47;;;;;;;8.10;6.00;;;4.20;61.40;;;;;;6240231;28;20124;-72
2024/01/21 02:28:48;;;;;;;9.93;5.22;;;4.10;61.40;;;;;;6241712;28;20029;-71
2024/01/21 02:31:55;;;;;;;8.68;6.03;;;4.10;61.50;;;;;;6236469;28;20094;-72
2024/01/21 02:34:55;;;;;;;11.07;5.75;;;4.10;61.70;;;;;;6244148;28;20446;-72
2024/01/21 02:37:56;;;;;;;12.70;6.03;;;4.10;61.70;;;;;;6240429;28;20029;-72
2024/01/21 02:40:57;;;;;;;11.75;5.57;;;4.10;61.80;;;;;;6225384;28;20134;-73
2024/01/21 02:43:59;;;;;;;15.45;7.38;;;4.10;61.90;;;;;;6245584;28;20469;-72
2024/01/21 02:46:59;;;;;;;10.38;5.93;;;4.10;61.90;;;;;;6257575;28;20025;-72
2024/01/21 02:50:00;;;;;;;8.98;5.05;;;4.10;61.90;;;;;;6240872;28;20095;-72
2024/01/21 02:53:01;;;;;;;15.35;5.75;;;4.10;61.90;;;;;;6242066;28;20063;-70
2024/01/21 02:56:02;;;;;;;13.75;5.05;;;4.10;61.80;;;;;;6237608;28;20127;-72
2024/01/21 02:59:02;;;;;;;8.65;5.00;;;4.20;61.80;;;;;;6239429;28;20038;-70
2024/01/21 03:02:03;;;;;;;15.88;6.30;;;4.10;61.70;;;;;;6236230;28;20022;-71
2024/01/21 03:05:05;;;;;;;12.52;5.65;;;4.10;61.70;;;;;;6220298;28;20052;-71
2024/01/21 03:08:06;;;;;;;16.02;6.38;;;4.00;62.00;;;;;;6243428;28;20009;-70
2024/01/21 03:11:08;;;;;;;8.00;4.63;;;4.00;62.10;;;;;;6237411;28;20020;-71
2024/01/21 03:14:09;;;;;;;9.00;5.03;;;4.00;62.40;;;;;;6243617;28;20020;-72
2024/01/21 03:17:10;;;;;;;9.85;5.20;;;4.00;62.30;;;;;;6239847;28;20021;-72
2024/01/21 03:20:11;;;;;;;9.82;5.45;;;4.00;62.40;;;;;;6242520;28;20350;-72
2024/01/21 03:23:13;;;;;;;5.88;4.05;;;4.00;62.30;;;;;;6240769;28;20013;-71
2024/01/21 03:26:14;;;;;;;9.10;4.72;;;4.10;62.40;;;;;;6237549;28;20017;-72
2024/01/21 03:29:15;;;;;;;10.68;6.05;;;4.10;62.30;;;;;;6247254;28;20180;-71
2024/01/21 03:32:16;;;;;;;7.93;4.43;;;4.10;62.30;;;;;;6244741;28;20067;-70
2024/01/21 03:35:17;;;;;;;8.05;4.35;;;4.10;62.20;;;;;;6242942;28;20131;-72
2024/01/21 03:38:18;;;;;;;9.68;5.72;;;4.00;62.20;;;;;;6247295;28;20128;-71
2024/01/21 03:41:19;;;;;;;13.52;6.13;;;4.00;62.20;;;;;;6227178;28;20021;-71
2024/01/21 03:44:20;;;;;;;10.60;6.15;;;4.00;62.30;;;;;;6247267;28;20103;-72
2024/01/21 03:47:21;;;;;;;9.77;6.18;;;4.00;62.30;;;;;;6251054;28;20017;-71
2024/01/21 03:50:21;;;;;;;8.82;5.38;;;4.00;62.40;;;;;;6243014;28;20672;-72
2024/01/21 03:53:22;;;;;;;8.55;4.28;;;4.00;62.40;;;;;;6246674;28;20158;-72
2024/01/21 03:56:24;;;;;;;18.17;6.35;;;4.00;62.40;;;;;;6244122;28;20026;-72
2024/01/21 03:59:25;;;;;;;6.97;3.60;;;4.00;62.40;;;;;;6247828;28;20446;-71
2024/01/21 04:02:26;;;;;;;8.05;4.70;;;4.10;62.40;;;;;;6242268;28;20104;-72
2024/01/21 04:05:27;;;;;;;7.88;4.80;;;4.10;62.30;;;;;;6262182;28;20017;-71
2024/01/21 04:08:28;;;;;;;13.32;6.68;;;4.10;62.40;;;;;;6257231;28;20615;-72
2024/01/21 04:11:29;;;;;;;11.75;4.93;;;4.10;62.40;;;;;;6261506;28;20148;-70
2024/01/21 04:14:29;;;;;;;8.00;5.72;;;4.10;62.40;;;;;;6243920;28;20033;-72
2024/01/21 04:17:30;;;;;;;10.23;4.05;;;4.00;62.20;;;;;;6240619;28;20018;-73
2024/01/21 04:20:31;;;;;;;7.70;3.33;;;4.00;62.20;;;;;;6247567;28;20025;-72
2024/01/21 04:23:32;;;;;;;11.07;4.72;;;4.00;62.20;;;;;;6249853;28;20473;-73
2024/01/21 04:26:33;;;;;;;11.68;5.38;;;4.00;62.30;;;;;;6241287;28;20023;-71
2024/01/21 04:29:34;;;;;;;8.98;6.05;;;4.00;62.50;;;;;;6226973;28;20024;-71
2024/01/21 04:32:35;;;;;;;10.63;4.78;;;3.90;62.50;;;;;;6242103;28;20025;-70
2024/01/21 04:35:37;;;;;;;7.95;4.88;;;3.90;62.70;;;;;;6245133;28;20143;-71
2024/01/21 04:38:37;;;;;;;9.93;5.57;;;3.90;62.80;;;;;;6241384;28;20477;-72
2024/01/21 04:41:38;;;;;;;15.80;4.75;;;3.80;63.00;;;;;;6242963;28;20071;-72
2024/01/21 04:44:39;;;;;;;14.68;6.30;;;3.80;63.10;;;;;;6256438;28;20021;-71
2024/01/21 04:47:40;;;;;;;7.18;3.30;;;3.80;63.30;;;;;;6242419;28;20035;-72
2024/01/21 04:50:40;;;;;;;9.18;4.53;;;3.70;63.50;;;;;;6242149;28;20052;-72
2024/01/21 04:53:42;;;;;;;7.55;3.47;;;3.70;63.40;;;;;;6246998;28;20029;-72
2024/01/21 04:56:43;;;;;;;7.13;3.85;;;3.80;63.60;;;;;;6240310;28;20084;-72
2024/01/21 04:59:43;;;;;;;16.50;5.28;;;3.70;63.60;;;;;;6269142;28;20516;-71
2024/01/21 05:02:44;;;;;;;12.77;4.93;;;3.70;63.80;;;;;;6241209;28;20027;-70
2024/01/21 05:05:45;;;;;;;8.75;4.80;;;3.60;64.00;;;;;;6270237;28;20401;-72
2024/01/21 05:08:49;;;;;;;7.38;3.83;;;3.60;64.10;;;;;;6259655;28;20021;-72
2024/01/21 05:11:50;;;;;;;10.73;3.78;;;3.60;64.20;;;;;;6243049;28;20124;-71
2024/01/21 05:14:50;;;;;;;9.00;4.20;;;3.60;64.20;;;;;;6243670;28;20060;-71
2024/01/21 05:17:52;;;;;;;9.35;4.70;;;3.60;64.30;;;;;;6276065;28;20389;-70
2024/01/21 05:25:16;;;;;;;9.10;4.57;;;3.70;64.30;;;;;;6246314;28;20378;-72
2024/01/21 05:28:16;;;;;;;12.02;4.72;;;3.70;64.40;;;;;;6247678;28;20056;-70
2024/01/21 05:31:17;;;;;;;5.78;3.42;;;3.70;64.40;;;;;;6231534;28;20018;-71
2024/01/21 05:34:18;;;;;;;5.38;3.67;;;3.80;64.30;;;;;;6224405;28;20030;-72
2024/01/21 05:37:19;;;;;;;4.90;3.50;;;3.70;64.00;;;;;;6241845;28;20045;-72
2024/01/21 05:40:20;;;;;;;7.93;4.38;;;3.80;64.00;;;;;;6233220;28;20079;-72
2024/01/21 05:43:20;;;;;;;6.32;3.70;;;3.80;64.00;;;;;;6246334;28;20031;-72
2024/01/21 05:46:21;;;;;;;6.72;3.97;;;3.80;63.90;;;;;;6275515;28;20032;-71
2024/01/21 05:49:23;;;;;;;5.88;4.18;;;3.90;63.70;;;;;;6241779;28;20029;-71
2024/01/21 05:52:24;;;;;;;10.02;3.95;;;3.90;63.70;;;;;;6242129;28;20526;-72
2024/01/21 05:55:25;;;;;;;7.88;4.57;;;3.90;63.70;;;;;;6273268;28;21359;-72
2024/01/21 05:58:25;;;;;;;8.40;5.15;;;3.90;63.70;;;;;;6244747;28;20536;-73
2024/01/21 06:01:26;;;;;;;5.65;3.90;;;3.90;63.70;;;;;;6261108;28;20075;-72
2024/01/21 06:04:27;;;;;;;8.57;4.22;;;4.00;63.60;;;;;;6274017;28;20512;-72
2024/01/21 06:07:28;;;;;;;7.88;4.35;;;4.00;63.50;;;;;;6229716;28;20145;-73
2024/01/21 06:10:29;;;;;;;8.98;5.05;;;4.00;63.30;;;;;;6248801;28;20025;-72
2024/01/21 06:13:30;;;;;;;11.68;4.00;;;4.00;63.20;;;;;;6251476;28;20020;-72
2024/01/21 06:16:30;;;;;;;11.90;3.33;;;4.00;63.10;;;;;;6245225;28;20061;-72
2024/01/21 06:19:31;;;;;;;16.42;5.95;;;4.00;63.10;;;;;;6244336;28;20490;-71
2024/01/21 06:22:32;;;;;;;6.13;3.72;;;4.00;63.10;;;;;;6248494;28;20366;-72
2024/01/21 06:25:33;;;;;;;8.10;4.68;;;4.00;63.10;;;;;;6243497;28;20493;-72
2024/01/21 06:28:33;;;;;;;8.45;4.50;;;4.00;63.30;;;;;;6241437;28;20032;-72
2024/01/21 06:31:35;;;;;;;12.60;4.45;;;4.00;63.20;;;;;;6242434;28;20159;-72
2024/01/21 06:34:35;;;;;;;11.88;4.13;;;4.00;63.10;;;;;;6241435;28;20023;-72
2024/01/21 06:37:37;;;;;;;10.82;4.25;;;4.00;63.10;;;;;;6241890;28;20425;-72
2024/01/21 06:40:38;;;;;;;11.15;4.93;;;4.00;63.30;;;;;;6225582;28;20389;-71
2024/01/21 06:43:38;;;;;;;10.13;3.67;;;3.90;63.20;;;;;;6239836;28;20106;-73
2024/01/21 06:46:39;;;;;;;10.25;4.93;;;3.90;63.30;;;;;;6242185;28;20021;-72
2024/01/21 06:49:40;;;;;;;9.43;4.45;;;3.80;63.40;;;;;;6233482;28;20029;-72
2024/01/21 06:52:41;;;;;;;14.05;4.50;;;3.80;63.60;;;;;;6226099;28;20075;-72
2024/01/21 06:55:45;;;;;;;11.60;4.75;;;3.80;63.80;;;;;;6276218;28;20437;-72
2024/01/21 06:58:46;;;;;;;6.55;3.75;;;3.70;63.80;;;;;;6239372;28;20120;-73
2024/01/21 07:01:47;;;;;;;6.60;3.30;;;3.80;64.00;;;;;;6228450;28;20493;-73
2024/01/21 07:04:48;;;;;;;11.45;4.63;;;3.80;64.00;;;;;;6244775;28;20495;-72
2024/01/21 07:07:48;;;;;;;8.98;4.40;;;3.80;64.00;;;;;;6251077;28;20040;-72
2024/01/21 07:10:50;;;;;;;6.63;4.38;;;3.80;64.10;;;;;;6250744;28;20044;-71
2024/01/21 07:13:51;;;;;;;7.78;4.32;;;3.80;64.20;;;;;;6250944;28;20055;-70
2024/01/21 07:16:53;;;;;;;5.32;4.20;;;3.80;64.10;;;;;;6248295;28;20049;-73
2024/01/21 07:19:54;;;;;;;8.27;4.15;;;3.90;64.20;;;;;;6226691;28;20029;-71
2024/01/21 07:22:58;;;;;;;11.52;3.50;;;3.90;64.10;;;;;;6248205;28;20118;-72
2024/01/21 07:25:59;;;;;;;6.22;4.10;;;3.90;64.00;;;;;;6247951;28;20021;-72
2024/01/21 07:29:00;;;;;;;8.85;4.05;;;3.90;64.00;;;;;;6249215;28;20028;-71
2024/01/21 07:32:01;;;;;;;5.47;2.95;;;3.90;64.00;;;;;;6246993;28;20082;-72
2024/01/21 07:35:03;;;;;;;7.45;4.53;;;3.90;63.90;;;;;;6245511;28;20045;-71
2024/01/21 07:38:04;;;;;;;12.85;6.80;;;3.90;64.00;;;;;;6245967;28;20029;-70
2024/01/21 07:41:05;;;;;;;10.90;4.68;;;3.90;64.10;;;;;;6252683;28;20060;-72
2024/01/21 07:44:06;;;;;;;10.70;3.75;;;3.90;64.10;;;;;;6250618;28;20029;-72
2024/01/21 07:47:06;;;;;;;13.00;4.32;;;3.90;64.20;;;;;;6250011;28;20052;-72
2024/01/21 07:50:08;;;;;;;6.13;3.33;;;4.00;64.20;;;;;;6246224;28;20544;-73
2024/01/21 07:53:09;;;;;;;6.28;4.13;;;4.10;64.10;;;;;;6243491;28;20100;-72
2024/01/21 07:56:10;;;;;;;8.75;4.13;;;4.10;64.10;;;;;;6246830;28;20107;-72
2024/01/21 07:59:11;;;;;;;6.82;4.03;;;4.20;63.90;;;;;;6245640;28;20025;-71
2024/01/21 08:02:11;;;;;;;8.60;3.38;;;4.20;63.70;;;;;;6246022;28;20409;-71
2024/01/21 08:05:12;;;;;;;7.65;4.38;;;4.30;63.60;;;;;;6245200;28;20477;-72
2024/01/21 08:08:13;;;;;;;11.73;3.80;;;4.40;63.40;;;;;;6244247;28;20461;-71
2024/01/21 08:11:16;;;;;;;6.32;3.83;;;4.50;63.40;;;;;;6263053;28;20200;-72
2024/01/21 08:14:17;;;;;;;12.25;5.97;;;4.50;63.00;;;;;;6249414;28;20048;-71
2024/01/21 08:17:20;;;;;;;9.15;5.10;;;4.40;62.70;;;;;;6243908;28;20030;-70
2024/01/21 08:20:20;;;;;;;12.23;5.65;;;4.70;62.80;;;;;;6245747;28;20048;-70
2024/01/21 08:23:21;;;;;;;10.63;4.03;;;4.70;62.60;;;;;;6238799;28;20041;-72
2024/01/21 08:26:22;;;;;;;14.93;4.70;;;4.80;62.50;;;;;;6239969;28;20082;-73
2024/01/21 08:29:23;;;;;;;11.10;5.55;;;4.90;62.20;;;;;;6244902;28;20131;-71
2024/01/21 08:32:24;;;;;;;13.90;3.47;;;5.00;62.00;;;;;;6266223;28;20778;-71
2024/01/21 08:35:25;;;;;;;11.82;5.18;;;5.10;61.70;;;;;;6227847;28;20025;-72
2024/01/21 08:38:26;;;;;;;14.52;6.15;;;5.20;61.40;;;;;;6244038;28;20029;-71
2024/01/21 08:41:27;;;;;;;5.35;3.60;;;5.30;61.20;;;;;;6246794;28;20242;-72
2024/01/21 08:44:28;;;;;;;9.88;4.68;;;5.30;60.80;;;;;;6244068;28;20049;-71
2024/01/21 08:47:29;;;;;;;10.30;4.65;;;5.40;60.70;;;;;;6246406;28;20021;-71
2024/01/21 08:50:29;;;;;;;6.90;3.85;;;5.50;60.50;;;;;;6245078;28;20134;-71
2024/01/21 08:53:30;;;;;;;8.70;4.60;;;5.60;60.20;;;;;;6247787;28;20053;-71
2024/01/21 08:56:32;;;;;;;5.30;3.45;;;5.60;59.80;;;;;;6244524;28;20410;-71
2024/01/21 08:59:33;;;;;;;5.82;3.85;;;5.60;59.80;;;;;;6229283;28;20028;-70
2024/01/21 09:02:33;;;;;;;7.22;4.35;;;5.70;59.80;;;;;;6244569;28;20035;-70
2024/01/21 09:05:34;;;;;;;8.27;3.35;;;5.70;59.70;;;;;;6245929;28;20028;-72
2024/01/21 09:08:35;;;;;;;7.28;3.80;;;5.80;59.60;;;;;;6247710;28;20445;-72
2024/01/21 09:11:36;;;;;;;7.38;3.63;;;5.90;59.40;;;;;;6261158;28;20111;-72
2024/01/21 09:14:37;;;;;;;8.82;4.47;;;5.90;59.30;;;;;;6247478;28;20021;-72
2024/01/21 09:17:38;;;;;;;6.18;3.50;;;6.10;59.40;;;;;;6244588;28;20021;-71
2024/01/21 09:20:39;;;;;;;5.45;3.00;;;6.30;59.30;;;;;;6244957;28;20039;-71
2024/01/21 09:23:40;;;;;;;5.20;3.42;;;6.30;58.80;;;;;;6242748;28;20033;-73
2024/01/21 09:26:41;;;;;;;13.05;4.57;;;6.40;58.50;;;;;;6224664;28;20104;-72
2024/01/21 09:29:43;;;;;;;9.07;4.80;;;6.50;58.30;;;;;;6244080;28;20616;-72
2024/01/21 09:32:44;;;;;;;6.35;4.18;;;6.60;58.20;;;;;;6241767;28;20032;-71
2024/01/21 09:35:45;;;;;;;10.98;4.40;;;6.70;58.00;;;;;;6258552;28;20025;-73
2024/01/21 09:38:46;;;;;;;13.20;3.85;;;6.80;57.70;;;;;;6257007;28;20021;-72
2024/01/21 09:41:49;;;;;;;7.95;4.03;;;6.80;57.40;;;;;;6243814;28;20429;-71
2024/01/21 09:44:51;;;;;;;7.50;4.20;;;6.90;57.30;;;;;;6240944;28;20136;-71
2024/01/21 09:47:54;;;;;;;13.73;5.95;;;7.00;57.30;;;;;;6240222;28;20024;-72
2024/01/21 09:50:56;;;;;;;6.55;3.45;;;7.10;57.10;;;;;;6241927;28;20021;-73
2024/01/21 09:54:00;;;;;;;8.90;4.38;;;7.30;57.10;;;;;;6272601;28;20040;-70
2024/01/21 09:57:05;;;;;;;16.77;4.85;;;7.40;56.80;;;;;;6243801;28;20046;-71
2024/01/21 10:00:07;;;;;;;14.82;4.65;;;7.50;56.50;;;;;;6254716;28;20112;-72
2024/01/21 10:03:13;;;;;;;13.32;5.75;;;7.60;56.30;;;;;;6245788;28;20048;-70
2024/01/21 10:06:16;;;;;;;10.68;4.60;;;7.70;56.20;;;;;;6238727;28;20086;-74
2024/01/21 10:09:23;;;;;;;11.02;4.53;;;7.80;55.80;;;;;;6242380;28;20108;-72
2024/01/21 10:12:24;;;;;;;7.75;3.83;;;7.90;55.70;;;;;;6265390;28;20029;-72
2024/01/21 10:15:25;;;;;;;11.05;4.40;;;7.90;55.70;;;;;;6243645;28;20021;-71
2024/01/21 10:18:28;;;;;;;7.18;4.15;;;8.00;55.50;;;;;;6242186;28;20555;-71
2024/01/21 10:21:35;;;;;;;9.05;4.15;;;8.10;55.30;;;;;;6243413;28;20021;-70
2024/01/21 10:24:49;;;;;;;9.70;4.75;;;8.10;55.10;;;;;;6240660;28;20105;-71
2024/01/21 10:27:53;;;;;;;19.05;6.65;;;8.10;55.00;;;;;;6256456;28;20021;-72
2024/01/21 10:30:54;;;;;;;5.40;3.33;;;8.10;54.80;;;;;;6242699;28;20031;-71
2024/01/21 10:33:55;;;;;;;9.80;3.50;;;8.10;54.50;;;;;;6244443;28;20487;-72
2024/01/21 10:37:03;;;;;;;8.70;4.25;;;8.10;54.40;;;;;;6259334;28;20025;-71
2024/01/21 10:40:07;;;;;;;12.18;3.90;;;8.10;54.50;;;;;;6240620;28;20083;-72
2024/01/21 10:43:08;;;;;;;9.73;4.38;;;8.10;54.40;;;;;;6228330;28;20078;-72
2024/01/21 10:46:10;;;;;;;12.85;4.40;;;8.20;54.30;;;;;;6243731;28;20445;-73
2024/01/21 10:49:13;;;;;;;11.50;4.20;;;8.20;54.10;;;;;;6241447;28;20017;-71
2024/01/21 10:52:16;;;;;;;15.48;5.82;;;8.30;54.10;;;;;;6248840;28;20466;-72
2024/01/21 10:55:17;;;;;;;9.45;4.15;;;8.30;54.10;;;;;;6242776;28;20018;-72
2024/01/21 10:58:18;;;;;;;10.93;3.97;;;8.30;53.80;;;;;;6240632;28;20732;-71
2024/01/21 11:01:21;;;;;;;9.38;4.15;;;8.40;53.70;;;;;;6256715;28;20029;-75
2024/01/21 11:04:22;;;;;;;11.20;3.78;;;8.40;53.50;;;;;;6240358;28;20041;-72
2024/01/21 11:07:25;;;;;;;9.57;3.92;;;8.40;53.40;;;;;;6242473;28;20025;-72
2024/01/21 11:10:26;;;;;;;8.88;4.70;;;8.40;53.60;;;;;;6242549;28;20025;-72
2024/01/21 11:13:52;;;;;;;12.27;4.35;;;8.40;53.40;;;;;;6230916;28;20129;-73
2024/01/21 11:16:55;;;;;;;11.63;5.05;;;8.50;53.50;;;;;;6256412;28;20056;-72
2024/01/21 11:19:56;;;;;;;13.40;5.50;;;8.60;53.30;;;;;;6256678;28;20116;-72
2024/01/21 11:22:59;;;;;;;10.30;3.85;;;8.70;53.10;;;;;;6242579;28;20021;-71
2024/01/21 11:26:01;;;;;;;10.38;3.65;;;8.90;53.00;;;;;;6268701;28;20033;-72
2024/01/21 11:29:22;;;;;;;12.55;5.72;;;9.20;52.70;;;;;;6218062;28;20029;-71
2024/01/21 11:32:28;;;;;;;12.18;5.10;;;9.50;51.80;;;;;;6227373;28;20029;-72
2024/01/21 11:35:31;;;;;;;11.60;5.18;;;9.70;51.20;;;;;;6243234;28;20037;-72
2024/01/21 11:38:34;;;;;;;7.65;3.30;;;9.90;50.60;;;;;;6241438;28;20095;-71
2024/01/21 11:41:43;;;;;;;9.90;3.63;;;10.10;50.40;;;;;;6240683;28;20101;-71
2024/01/21 11:44:44;;;;;;;7.90;3.45;;;10.40;50.10;;;;;;6276825;28;20029;-71
2024/01/21 11:47:46;;;;;;;11.57;4.18;;;10.60;49.50;;;;;;6236675;28;20488;-72
2024/01/21 11:50:47;;;;;;;6.57;3.50;;;10.90;48.90;;;;;;6262852;28;20032;-71
2024/01/21 11:53:48;;;;;;;5.82;3.20;;;11.20;48.10;;;;;;6246715;28;20033;-71
2024/01/21 11:56:50;;;;;;;5.07;2.47;;;11.30;47.70;;;;;;6242174;28;20406;-72
2024/01/21 11:59:50;;;;;;;6.95;3.05;;;11.30;47.20;;;;;;6249335;28;20033;-71
2024/01/21 12:02:51;;;;;;;3.90;2.38;;;11.30;47.30;;;;;;6248028;28;20036;-72
2024/01/21 12:05:52;;;;;;;2.92;1.48;;;11.20;47.20;;;;;;6279141;28;20159;-71
2024/01/21 12:08:53;;;;;;;4.03;2.08;;;11.10;46.80;;;;;;6246110;28;20083;-71
2024/01/21 12:11:54;;;;;;;3.65;2.17;;;11.10;46.50;;;;;;6245017;28;20033;-72
2024/01/21 12:14:55;;;;;;;5.28;1.90;;;10.60;46.40;;;;;;6245055;28;20030;-72
2024/01/21 12:17:56;;;;;;;7.30;2.30;;;10.40;46.60;;;;;;6243553;28;20025;-68
2024/01/21 12:20:57;;;;;;;3.47;1.50;;;10.30;46.70;;;;;;6242738;28;20040;-72
2024/01/21 12:23:59;;;;;;;7.28;2.53;;;10.10;46.90;;;;;;6254889;28;20021;-73
2024/01/21 12:27:00;;;;;;;7.60;2.28;;;10.10;47.10;;;;;;6254202;28;20039;-73
2024/01/21 12:30:01;;;;;;;4.43;1.73;;;10.10;47.50;;;;;;6245357;28;20017;-72
2024/01/21 12:33:03;;;;;;;4.55;1.85;;;10.20;47.60;;;;;;6249356;28;20113;-72
2024/01/21 12:36:04;;;;;;;4.20;2.22;;;10.20;47.20;;;;;;6246995;28;20028;-71
2024/01/21 12:39:06;;;;;;;6.03;2.72;;;10.30;47.20;;;;;;6243087;28;20490;-71
2024/01/21 12:42:07;;;;;;;7.05;2.90;;;10.30;47.00;;;;;;6260601;28;20031;-70
2024/01/21 12:45:08;;;;;;;3.85;2.28;;;10.30;46.90;;;;;;6246508;28;20504;-72
2024/01/21 12:48:09;;;;;;;6.00;2.45;;;10.30;46.80;;;;;;6242541;28;20069;-72
2024/01/21 12:51:10;;;;;;;6.95;2.42;;;10.30;46.90;;;;;;6243919;28;20476;-72
2024/01/21 12:54:11;;;;;;;5.10;2.55;;;10.30;46.90;;;;;;6243210;28;20043;-71
2024/01/21 12:57:12;;;;;;;9.75;3.22;;;10.30;47.20;;;;;;6243129;28;20025;-72
2024/01/21 13:00:13;;;;;;;4.55;2.72;;;10.40;47.50;;;;;;6259400;28;20025;-72
2024/01/21 13:03:15;;;;;;;7.13;2.30;;;10.40;47.40;;;;;;6242535;28;20097;-73
2024/01/21 13:06:16;;;;;;;4.60;2.92;;;10.40;47.30;;;;;;6241843;28;20658;-71
2024/01/21 13:09:17;;;;;;;7.28;2.95;;;10.40;47.10;;;;;;6240418;28;20028;-72
2024/01/21 13:12:18;;;;;;;4.57;2.22;;;10.30;47.10;;;;;;6232429;28;20827;-72
2024/01/21 13:15:20;;;;;;;8.23;2.80;;;10.20;47.20;;;;;;6249044;28;20025;-72
2024/01/21 13:18:22;;;;;;;5.65;2.80;;;10.20;47.50;;;;;;6242239;28;21501;-72
2024/01/21 13:21:22;;;;;;;3.78;2.67;;;10.10;47.70;;;;;;6245062;28;20021;-72
2024/01/21 13:24:23;;;;;;;5.28;2.47;;;10.00;47.90;;;;;;6245745;28;20024;-71
2024/01/21 13:27:39;;;;;;;7.45;3.15;;;10.00;47.90;;;;;;6239023;28;20021;-72
2024/01/21 13:30:45;;;;;;;4.53;2.72;;;9.90;48.10;;;;;;6240833;28;20089;-72
2024/01/21 13:33:46;;;;;;;5.72;3.28;;;9.90;48.20;;;;;;6275031;28;20028;-71
2024/01/21 13:36:47;;;;;;;5.10;2.80;;;9.90;48.40;;;;;;6231691;28;20473;-74
2024/01/21 13:39:47;;;;;;;6.15;2.85;;;9.90;49.00;;;;;;6226801;28;20036;-72
2024/01/21 13:42:49;;;;;;;6.93;2.67;;;10.00;49.00;;;;;;6229650;28;20187;-72
2024/01/21 13:45:50;;;;;;;6.07;1.80;;;9.90;48.20;;;;;;6244135;28;20152;-72
2024/01/21 13:48:51;;;;;;;4.68;2.33;;;9.90;48.30;;;;;;6239585;28;20032;-73
2024/01/21 13:51:53;;;;;;;4.78;2.38;;;9.90;48.40;;;;;;6243113;28;20155;-73
2024/01/21 13:54:57;;;;;;;4.25;2.15;;;9.90;48.40;;;;;;6243684;28;20140;-70
2024/01/21 13:57:58;;;;;;;5.82;2.22;;;9.90;48.20;;;;;;6241353;28;20079;-73
2024/01/21 14:00:59;;;;;;;4.22;2.00;;;9.90;47.90;;;;;;6246692;28;20037;-72
2024/01/21 14:04:01;;;;;;;4.97;2.17;;;9.80;47.80;;;;;;6241399;28;20032;-71
2024/01/21 14:07:02;;;;;;;6.80;2.25;;;9.90;47.90;;;;;;6240814;28;20024;-71
2024/01/21 14:10:04;;;;;;;5.55;1.95;;;9.90;47.90;;;;;;6239906;28;20117;-74
2024/01/21 14:13:05;;;;;;;3.53;2.17;;;9.90;48.10;;;;;;6232337;28;20036;-72
2024/01/21 14:16:06;;;;;;;6.18;2.08;;;10.00;47.90;;;;;;6244279;28;20064;-74
2024/01/21 14:19:07;;;;;;;4.55;2.05;;;10.00;47.40;;;;;;6258775;28;20029;-71
2024/01/21 14:22:08;;;;;;;3.13;1.85;;;10.00;47.50;;;;;;6243116;28;20201;-72
2024/01/21 14:25:19;;;;;;;5.00;1.95;;;10.20;47.00;;;;;;6243322;28;20464;-73
2024/01/21 14:28:24;;;;;;;3.17;1.73;;;10.00;46.40;;;;;;6240109;28;20120;-73
2024/01/21 14:31:27;;;;;;;12.98;3.05;;;10.00;46.60;;;;;;6237110;28;20073;-72
2024/01/21 14:34:29;;;;;;;9.40;2.20;;;10.00;47.10;;;;;;6254294;28;20135;-72
2024/01/21 14:37:29;;;;;;;3.50;1.77;;;10.10;47.30;;;;;;6241182;28;20033;-73
2024/01/21 14:40:30;;;;;;;5.40;2.40;;;10.10;47.20;;;;;;6243145;28;20024;-72
2024/01/21 14:43:32;;;;;;;4.13;2.05;;;10.20;47.20;;;;;;6240326;28;20029;-72
2024/01/21 14:46:33;;;;;;;4.25;2.20;;;10.20;46.90;;;;;;6244724;28;20045;-73
2024/01/21 14:49:34;;;;;;;3.65;1.58;;;10.20;46.80;;;;;;6225862;28;20386;-72
2024/01/21 14:52:35;;;;;;;7.75;2.20;;;10.10;46.80;;;;;;6245971;28;20658;-70
2024/01/21 14:55:37;;;;;;;6.03;2.13;;;10.10;46.70;;;;;;6244349;28;20445;-71
2024/01/21 14:58:38;;;;;;;4.15;2.72;;;10.10;46.90;;;;;;6236891;28;20069;-71
2024/01/21 15:01:39;;;;;;;4.22;1.65;;;10.10;47.10;;;;;;6244642;28;20076;-70
2024/01/21 15:04:41;;;;;;;7.53;1.83;;;10.20;47.00;;;;;;6243538;28;20021;-71
2024/01/21 15:07:42;;;;;;;3.70;2.10;;;10.20;46.90;;;;;;6240120;28;20109;-72
2024/01/21 15:10:43;;;;;;;3.70;1.95;;;10.20;46.90;;;;;;6231412;28;20369;-71
2024/01/21 15:13:47;;;;;;;5.32;1.90;;;10.20;46.90;;;;;;6254279;28;20041;-73
2024/01/21 15:16:48;;;;;;;4.18;1.55;;;10.30;46.60;;;;;;6256732;28;20036;-72
2024/01/21 15:19:49;;;;;;;3.75;1.58;;;10.30;45.70;;;;;;6240491;28;20425;-72
2024/01/21 15:22:50;;;;;;;2.80;1.63;;;10.30;44.80;;;;;;6244473;28;20084;-72
2024/01/21 15:25:51;;;;;;;4.55;1.50;;;10.30;44.70;;;;;;6252179;28;20052;-73
2024/01/21 15:28:52;;;;;;;4.95;1.83;;;10.30;44.50;;;;;;6248994;28;20036;-74
2024/01/21 15:31:54;;;;;;;5.78;1.65;;;10.30;44.70;;;;;;6243746;28;20036;-72
2024/01/21 15:34:55;;;;;;;3.15;1.52;;;10.30;44.70;;;;;;6246357;28;20041;-76
2024/01/21 15:37:57;;;;;;;5.10;1.50;;;10.30;45.00;;;;;;6246660;28;20059;-73
2024/01/21 15:40:58;;;;;;;2.50;1.35;;;10.20;45.00;;;;;;6247242;28;20683;-73
2024/01/21 15:43:59;;;;;;;19.17;5.03;;;10.20;45.40;;;;;;6245021;28;20038;-72
2024/01/21 15:47:00;;;;;;;4.78;2.42;;;10.20;45.70;;;;;;6246255;28;20082;-72
2024/01/21 15:50:01;;;;;;;5.43;2.58;;;10.30;45.50;;;;;;6262303;28;20026;-72
2024/01/21 15:53:02;;;;;;;6.35;2.60;;;10.20;45.20;;;;;;6245838;28;20393;-72